sensor_id;sensor_type;location;lat;lon;timestamp;temperature;humidity
49503;DHT22;35409;48.776;9.204;2023-02-21T00:01:40;3.90;99.90
49503;DHT22;35409;48.776;9.204;2023-02-21T00:04:24;3.90;99.90
49503;DHT22;35409;48.776;9.204;2023-02-21T00:07:08;4.00;99.90
49503;DHT22;35409;48.776;9.204;2023-02-21T00:09:53;3.90;99.90
49503;DHT22;35409;48.776;9.204;2023-02-21T00:12:37;3.90;99.90
49503;DHT22;35409;48.776;9.204;2023-02-21T00:15:21;3.80;99.90
49503;DHT22;35409;48.776;9.204;2023-02-21T00:18:05;3.80;99.90
49503;DHT22;35409;48.776;9.204;2023-02-21T00:20:49;3.80;99.90
49503;DHT22;35409;48.776;9.204;2023-02-21T00:23:34;3.80;99.90
49503;DHT22;35409;48.776;9.204;2023-02-21T00:26:19;3.60;99.90
49503;DHT22;35409;48.776;9.204;2023-02-21T00:29:03;3.60;99.90
49503;DHT22;35409;48.776;9.204;2023-02-21T00:31:47;3.50;99.90
49503;DHT22;35409;48.776;9.204;2023-02-21T00:34:31;3.60;99.90
49503;DHT22;35409;48.776;9.204;2023-02-21T00:37:15;3.60;99.90
49503;DHT22;35409;48.776;9.204;2023-02-21T00:39:59;3.50;99.90
49503;DHT22;35409;48.776;9.204;2023-02-21T00:42:43;3.60;99.90
49503;DHT22;35409;48.776;9.204;2023-02-21T00:45:27;3.60;99.90
49503;DHT22;35409;48.776;9.204;2023-02-21T00:48:11;3.50;99.90
49503;DHT22;35409;48.776;9.204;2023-02-21T00:50:55;3.50;99.90
49503;DHT22;35409;48.776;9.204;2023-02-21T00:53:39;3.60;99.90
49503;DHT22;35409;48.776;9.204;2023-02-21T00:56:23;3.60;99.90
49503;DHT22;35409;48.776;9.204;2023-02-21T00:59:07;3.60;99.90
49503;DHT22;35409;48.776;9.204;2023-02-21T01:01:51;3.60;99.90
49503;DHT22;35409;48.776;9.204;2023-02-21T01:04:35;3.60;99.90
49503;DHT22;35409;48.776;9.204;2023-02-21T01:07:19;3.50;99.90
49503;DHT22;35409;48.776;9.204;2023-02-21T01:10:03;3.50;99.90
49503;DHT22;35409;48.776;9.204;2023-02-21T01:12:48;3.50;99.90
49503;DHT22;35409;48.776;9.204;2023-02-21T01:15:31;3.40;99.90
49503;DHT22;35409;48.776;9.204;2023-02-21T01:18:16;3.40;99.90
49503;DHT22;35409;48.776;9.204;2023-02-21T01:20:59;3.50;99.90
49503;DHT22;35409;48.776;9.204;2023-02-21T01:23:44;3.50;99.90
49503;DHT22;35409;48.776;9.204;2023-02-21T01:26:27;3.50;99.90
49503;DHT22;35409;48.776;9.204;2023-02-21T01:29:12;3.60;99.90
49503;DHT22;35409;48.776;9.204;2023-02-21T01:31:56;3.70;99.90
49503;DHT22;35409;48.776;9.204;2023-02-21T01:34:40;3.80;99.90
49503;DHT22;35409;48.776;9.204;2023-02-21T01:37:24;3.90;99.90
49503;DHT22;35409;48.776;9.204;2023-02-21T01:40:12;3.90;99.90
49503;DHT22;35409;48.776;9.204;2023-02-21T01:42:57;3.90;99.90
49503;DHT22;35409;48.776;9.204;2023-02-21T01:45:50;3.80;99.90
49503;DHT22;35409;48.776;9.204;2023-02-21T01:48:37;3.70;99.90
49503;DHT22;35409;48.776;9.204;2023-02-21T01:51:26;3.70;99.90
49503;DHT22;35409;48.776;9.204;2023-02-21T01:54:11;3.70;99.90
49503;DHT22;35409;48.776;9.204;2023-02-21T01:56:55;3.70;99.90
49503;DHT22;35409;48.776;9.204;2023-02-21T01:59:42;3.80;99.90
49503;DHT22;35409;48.776;9.204;2023-02-21T02:02:32;3.90;99.90
49503;DHT22;35409;48.776;9.204;2023-02-21T02:05:18;3.90;99.90
49503;DHT22;35409;48.776;9.204;2023-02-21T02:08:03;4.00;99.90
49503;DHT22;35409;48.776;9.204;2023-02-21T02:10:52;4.00;99.90
49503;DHT22;35409;48.776;9.204;2023-02-21T02:21:41;3.80;99.90
49503;DHT22;35409;48.776;9.204;2023-02-21T02:32:25;3.50;99.90
49503;DHT22;35409;48.776;9.204;2023-02-21T02:35:16;3.50;99.90
49503;DHT22;35409;48.776;9.204;2023-02-21T02:38:00;3.40;99.90
49503;DHT22;35409;48.776;9.204;2023-02-21T02:40:51;3.40;99.90
49503;DHT22;35409;48.776;9.204;2023-02-21T02:43:25;3.40;99.90
49503;DHT22;35409;48.776;9.204;2023-02-21T02:49:29;3.40;99.90
49503;DHT22;35409;48.776;9.204;2023-02-21T02:51:36;3.40;99.90
49503;DHT22;35409;48.776;9.204;2023-02-21T02:54:02;3.40;99.90
49503;DHT22;35409;48.776;9.204;2023-02-21T02:56:27;3.30;99.90
49503;DHT22;35409;48.776;9.204;2023-02-21T02:59:06;3.30;99.90
49503;DHT22;35409;48.776;9.204;2023-02-21T03:10:22;3.10;99.90
49503;DHT22;35409;48.776;9.204;2023-02-21T03:13:11;3.10;99.90
49503;DHT22;35409;48.776;9.204;2023-02-21T03:15:48;3.00;99.90
49503;DHT22;35409;48.776;9.204;2023-02-21T03:18:35;3.00;99.90
49503;DHT22;35409;48.776;9.204;2023-02-21T03:21:09;2.90;99.90
49503;DHT22;35409;48.776;9.204;2023-02-21T03:23:36;2.90;99.90
49503;DHT22;35409;48.776;9.204;2023-02-21T03:26:05;2.80;99.90
49503;DHT22;35409;48.776;9.204;2023-02-21T03:28:33;2.80;99.90
49503;DHT22;35409;48.776;9.204;2023-02-21T03:31:01;2.80;99.90
49503;DHT22;35409;48.776;9.204;2023-02-21T03:33:28;2.80;99.90
49503;DHT22;35409;48.776;9.204;2023-02-21T03:35:54;2.80;99.90
49503;DHT22;35409;48.776;9.204;2023-02-21T03:38:20;2.80;99.90
49503;DHT22;35409;48.776;9.204;2023-02-21T03:40:45;2.80;99.90
49503;DHT22;35409;48.776;9.204;2023-02-21T03:43:11;2.70;99.90
49503;DHT22;35409;48.776;9.204;2023-02-21T03:45:36;2.60;99.90
49503;DHT22;35409;48.776;9.204;2023-02-21T03:48:02;2.60;99.90
49503;DHT22;35409;48.776;9.204;2023-02-21T03:50:28;2.60;99.90
49503;DHT22;35409;48.776;9.204;2023-02-21T03:52:54;2.60;99.90
49503;DHT22;35409;48.776;9.204;2023-02-21T03:55:20;2.60;99.90
49503;DHT22;35409;48.776;9.204;2023-02-21T03:57:46;2.50;99.90
49503;DHT22;35409;48.776;9.204;2023-02-21T04:00:12;2.40;99.90
49503;DHT22;35409;48.776;9.204;2023-02-21T04:02:38;2.40;99.90
49503;DHT22;35409;48.776;9.204;2023-02-21T04:05:04;2.40;99.90
49503;DHT22;35409;48.776;9.204;2023-02-21T04:07:30;2.40;99.90
49503;DHT22;35409;48.776;9.204;2023-02-21T04:09:56;2.30;99.90
49503;DHT22;35409;48.776;9.204;2023-02-21T04:12:21;2.30;99.90
49503;DHT22;35409;48.776;9.204;2023-02-21T04:14:47;2.30;99.90
49503;DHT22;35409;48.776;9.204;2023-02-21T04:17:12;2.20;99.90
49503;DHT22;35409;48.776;9.204;2023-02-21T04:19:38;2.20;99.90
49503;DHT22;35409;48.776;9.204;2023-02-21T04:22:04;2.20;99.90
49503;DHT22;35409;48.776;9.204;2023-02-21T04:24:30;2.20;99.90
49503;DHT22;35409;48.776;9.204;2023-02-21T04:26:55;2.20;99.90
49503;DHT22;35409;48.776;9.204;2023-02-21T04:29:21;2.30;99.90
49503;DHT22;35409;48.776;9.204;2023-02-21T04:31:46;2.30;99.90
49503;DHT22;35409;48.776;9.204;2023-02-21T04:34:12;2.30;99.90
49503;DHT22;35409;48.776;9.204;2023-02-21T04:36:38;2.50;99.90
49503;DHT22;35409;48.776;9.204;2023-02-21T04:39:05;2.50;99.90
49503;DHT22;35409;48.776;9.204;2023-02-21T04:41:31;2.40;99.90
49503;DHT22;35409;48.776;9.204;2023-02-21T04:43:57;2.40;99.90
49503;DHT22;35409;48.776;9.204;2023-02-21T04:46:22;2.30;99.90
49503;DHT22;35409;48.776;9.204;2023-02-21T04:48:49;2.20;99.90
49503;DHT22;35409;48.776;9.204;2023-02-21T04:51:17;2.20;99.90
49503;DHT22;35409;48.776;9.204;2023-02-21T04:53:47;2.20;99.90
49503;DHT22;35409;48.776;9.204;2023-02-21T04:56:12;2.20;99.90
49503;DHT22;35409;48.776;9.204;2023-02-21T04:58:38;2.20;99.90
49503;DHT22;35409;48.776;9.204;2023-02-21T05:01:04;2.20;99.90
49503;DHT22;35409;48.776;9.204;2023-02-21T05:03:30;2.10;99.90
49503;DHT22;35409;48.776;9.204;2023-02-21T05:05:55;2.10;99.90
49503;DHT22;35409;48.776;9.204;2023-02-21T05:08:21;2.10;99.90
49503;DHT22;35409;48.776;9.204;2023-02-21T05:10:48;2.10;99.90
49503;DHT22;35409;48.776;9.204;2023-02-21T05:13:14;2.10;99.90
49503;DHT22;35409;48.776;9.204;2023-02-21T05:15:40;2.10;99.90
49503;DHT22;35409;48.776;9.204;2023-02-21T05:18:06;2.10;99.90
49503;DHT22;35409;48.776;9.204;2023-02-21T05:20:31;2.10;99.90
49503;DHT22;35409;48.776;9.204;2023-02-21T05:22:57;2.00;99.90
49503;DHT22;35409;48.776;9.204;2023-02-21T05:25:23;1.90;99.90
49503;DHT22;35409;48.776;9.204;2023-02-21T05:27:50;1.90;99.90
49503;DHT22;35409;48.776;9.204;2023-02-21T05:30:17;1.90;99.90
49503;DHT22;35409;48.776;9.204;2023-02-21T05:32:43;1.90;99.90
49503;DHT22;35409;48.776;9.204;2023-02-21T05:35:10;1.80;99.90
49503;DHT22;35409;48.776;9.204;2023-02-21T05:37:36;1.80;99.90
49503;DHT22;35409;48.776;9.204;2023-02-21T05:40:02;1.80;99.90
49503;DHT22;35409;48.776;9.204;2023-02-21T05:42:29;1.80;99.90
49503;DHT22;35409;48.776;9.204;2023-02-21T05:44:55;1.70;99.90
49503;DHT22;35409;48.776;9.204;2023-02-21T05:47:20;1.70;99.90
49503;DHT22;35409;48.776;9.204;2023-02-21T05:49:46;1.60;99.90
49503;DHT22;35409;48.776;9.204;2023-02-21T05:52:13;1.60;99.90
49503;DHT22;35409;48.776;9.204;2023-02-21T05:54:39;1.50;99.90
49503;DHT22;35409;48.776;9.204;2023-02-21T05:57:05;1.50;99.90
49503;DHT22;35409;48.776;9.204;2023-02-21T05:59:31;1.50;99.90
49503;DHT22;35409;48.776;9.204;2023-02-21T06:01:56;1.60;99.90
49503;DHT22;35409;48.776;9.204;2023-02-21T06:04:22;1.60;99.90
49503;DHT22;35409;48.776;9.204;2023-02-21T06:06:49;1.70;99.90
49503;DHT22;35409;48.776;9.204;2023-02-21T06:09:15;1.80;99.90
49503;DHT22;35409;48.776;9.204;2023-02-21T06:11:41;1.90;99.90
49503;DHT22;35409;48.776;9.204;2023-02-21T06:14:12;2.10;99.90
49503;DHT22;35409;48.776;9.204;2023-02-21T06:16:39;2.20;99.90
49503;DHT22;35409;48.776;9.204;2023-02-21T06:19:06;2.20;99.90
49503;DHT22;35409;48.776;9.204;2023-02-21T06:21:32;2.10;99.90
49503;DHT22;35409;48.776;9.204;2023-02-21T06:23:58;2.10;99.90
49503;DHT22;35409;48.776;9.204;2023-02-21T06:26:24;2.10;99.90
49503;DHT22;35409;48.776;9.204;2023-02-21T06:28:50;2.10;99.90
49503;DHT22;35409;48.776;9.204;2023-02-21T06:31:17;2.10;99.90
49503;DHT22;35409;48.776;9.204;2023-02-21T06:33:43;2.20;99.90
49503;DHT22;35409;48.776;9.204;2023-02-21T06:36:14;2.40;99.90
49503;DHT22;35409;48.776;9.204;2023-02-21T06:38:44;2.40;99.90
49503;DHT22;35409;48.776;9.204;2023-02-21T06:41:10;2.40;99.90
49503;DHT22;35409;48.776;9.204;2023-02-21T06:43:36;2.40;99.90
49503;DHT22;35409;48.776;9.204;2023-02-21T06:46:02;2.30;99.90
49503;DHT22;35409;48.776;9.204;2023-02-21T06:48:29;2.30;99.90
49503;DHT22;35409;48.776;9.204;2023-02-21T06:50:54;2.20;99.90
49503;DHT22;35409;48.776;9.204;2023-02-21T06:53:20;2.10;99.90
49503;DHT22;35409;48.776;9.204;2023-02-21T06:55:46;2.00;99.90
49503;DHT22;35409;48.776;9.204;2023-02-21T06:58:12;2.00;99.90
49503;DHT22;35409;48.776;9.204;2023-02-21T07:00:38;2.10;99.90
49503;DHT22;35409;48.776;9.204;2023-02-21T07:03:03;2.20;99.90
49503;DHT22;35409;48.776;9.204;2023-02-21T07:05:29;2.30;99.90
49503;DHT22;35409;48.776;9.204;2023-02-21T07:08:02;2.40;99.90
49503;DHT22;35409;48.776;9.204;2023-02-21T07:10:28;2.50;99.90
49503;DHT22;35409;48.776;9.204;2023-02-21T07:12:55;2.60;99.90
49503;DHT22;35409;48.776;9.204;2023-02-21T07:15:21;2.60;99.90
49503;DHT22;35409;48.776;9.204;2023-02-21T07:17:46;2.60;99.90
49503;DHT22;35409;48.776;9.204;2023-02-21T07:20:12;2.60;99.90
49503;DHT22;35409;48.776;9.204;2023-02-21T07:22:38;2.50;99.90
49503;DHT22;35409;48.776;9.204;2023-02-21T07:25:03;2.60;99.90
49503;DHT22;35409;48.776;9.204;2023-02-21T07:27:29;2.50;99.90
49503;DHT22;35409;48.776;9.204;2023-02-21T07:29:55;2.60;99.90
49503;DHT22;35409;48.776;9.204;2023-02-21T07:32:21;2.60;99.90
49503;DHT22;35409;48.776;9.204;2023-02-21T07:34:46;2.80;99.90
49503;DHT22;35409;48.776;9.204;2023-02-21T07:37:13;2.90;99.90
49503;DHT22;35409;48.776;9.204;2023-02-21T07:39:39;3.00;99.90
49503;DHT22;35409;48.776;9.204;2023-02-21T07:42:05;3.10;99.90
49503;DHT22;35409;48.776;9.204;2023-02-21T07:44:32;3.20;99.90
49503;DHT22;35409;48.776;9.204;2023-02-21T07:46:58;3.30;99.90
49503;DHT22;35409;48.776;9.204;2023-02-21T07:49:24;3.40;99.90
49503;DHT22;35409;48.776;9.204;2023-02-21T07:51:49;3.50;99.90
49503;DHT22;35409;48.776;9.204;2023-02-21T07:54:15;3.50;99.90
49503;DHT22;35409;48.776;9.204;2023-02-21T07:56:43;3.60;99.90
49503;DHT22;35409;48.776;9.204;2023-02-21T07:59:09;3.70;99.90
49503;DHT22;35409;48.776;9.204;2023-02-21T08:01:35;3.70;99.90
49503;DHT22;35409;48.776;9.204;2023-02-21T08:04:00;3.80;99.90
49503;DHT22;35409;48.776;9.204;2023-02-21T08:06:26;4.00;99.90
49503;DHT22;35409;48.776;9.204;2023-02-21T08:08:51;4.20;99.90
49503;DHT22;35409;48.776;9.204;2023-02-21T08:11:17;4.30;99.90
49503;DHT22;35409;48.776;9.204;2023-02-21T08:13:42;4.30;99.90
49503;DHT22;35409;48.776;9.204;2023-02-21T08:16:08;4.40;99.90
49503;DHT22;35409;48.776;9.204;2023-02-21T08:18:34;4.50;99.90
49503;DHT22;35409;48.776;9.204;2023-02-21T08:20:59;4.60;99.90
49503;DHT22;35409;48.776;9.204;2023-02-21T08:23:25;4.70;99.90
49503;DHT22;35409;48.776;9.204;2023-02-21T08:25:50;4.80;99.90
49503;DHT22;35409;48.776;9.204;2023-02-21T08:28:16;4.80;99.90
49503;DHT22;35409;48.776;9.204;2023-02-21T08:30:42;5.00;99.90
49503;DHT22;35409;48.776;9.204;2023-02-21T08:33:08;5.10;99.90
49503;DHT22;35409;48.776;9.204;2023-02-21T08:35:33;5.20;99.90
49503;DHT22;35409;48.776;9.204;2023-02-21T08:37:59;5.40;99.90
49503;DHT22;35409;48.776;9.204;2023-02-21T08:40:31;5.50;99.90
49503;DHT22;35409;48.776;9.204;2023-02-21T08:42:58;5.70;99.90
49503;DHT22;35409;48.776;9.204;2023-02-21T08:45:25;5.80;99.90
49503;DHT22;35409;48.776;9.204;2023-02-21T08:47:51;5.90;99.90
49503;DHT22;35409;48.776;9.204;2023-02-21T08:50:19;6.00;99.90
49503;DHT22;35409;48.776;9.204;2023-02-21T08:52:45;6.20;99.90
49503;DHT22;35409;48.776;9.204;2023-02-21T08:55:11;6.30;99.90
49503;DHT22;35409;48.776;9.204;2023-02-21T08:57:37;6.40;99.90
49503;DHT22;35409;48.776;9.204;2023-02-21T09:00:03;6.50;99.90
49503;DHT22;35409;48.776;9.204;2023-02-21T09:02:35;6.60;99.90
49503;DHT22;35409;48.776;9.204;2023-02-21T09:05:12;6.70;99.90
49503;DHT22;35409;48.776;9.204;2023-02-21T09:07:38;6.90;99.90
49503;DHT22;35409;48.776;9.204;2023-02-21T09:10:05;7.10;99.90
49503;DHT22;35409;48.776;9.204;2023-02-21T09:12:31;7.30;99.90
49503;DHT22;35409;48.776;9.204;2023-02-21T09:14:57;7.40;99.90
49503;DHT22;35409;48.776;9.204;2023-02-21T09:17:22;7.60;99.90
49503;DHT22;35409;48.776;9.204;2023-02-21T09:19:48;7.70;99.90
49503;DHT22;35409;48.776;9.204;2023-02-21T09:22:14;7.90;99.90
49503;DHT22;35409;48.776;9.204;2023-02-21T09:24:40;8.10;99.90
49503;DHT22;35409;48.776;9.204;2023-02-21T09:27:06;8.20;99.90
49503;DHT22;35409;48.776;9.204;2023-02-21T09:29:33;8.20;99.90
49503;DHT22;35409;48.776;9.204;2023-02-21T09:32:00;8.40;99.90
49503;DHT22;35409;48.776;9.204;2023-02-21T09:34:26;8.50;99.90
49503;DHT22;35409;48.776;9.204;2023-02-21T09:36:52;8.70;99.90
49503;DHT22;35409;48.776;9.204;2023-02-21T09:39:19;8.90;99.90
49503;DHT22;35409;48.776;9.204;2023-02-21T09:41:46;9.00;99.90
49503;DHT22;35409;48.776;9.204;2023-02-21T09:44:21;9.20;99.90
49503;DHT22;35409;48.776;9.204;2023-02-21T09:46:49;9.30;99.90
49503;DHT22;35409;48.776;9.204;2023-02-21T09:51:43;9.50;99.90
49503;DHT22;35409;48.776;9.204;2023-02-21T09:54:32;9.70;99.90
49503;DHT22;35409;48.776;9.204;2023-02-21T09:57:01;9.80;99.90
49503;DHT22;35409;48.776;9.204;2023-02-21T09:59:28;9.90;99.90
49503;DHT22;35409;48.776;9.204;2023-02-21T10:07:17;10.30;99.90
49503;DHT22;35409;48.776;9.204;2023-02-21T10:10:09;10.30;99.90
49503;DHT22;35409;48.776;9.204;2023-02-21T10:17:48;10.70;99.90
49503;DHT22;35409;48.776;9.204;2023-02-21T10:20:25;10.90;99.90
49503;DHT22;35409;48.776;9.204;2023-02-21T10:22:54;11.00;99.90
49503;DHT22;35409;48.776;9.204;2023-02-21T10:25:31;11.20;99.90
49503;DHT22;35409;48.776;9.204;2023-02-21T10:27:59;11.40;99.90
49503;DHT22;35409;48.776;9.204;2023-02-21T10:30:34;11.40;99.90
49503;DHT22;35409;48.776;9.204;2023-02-21T10:33:01;11.60;99.90
49503;DHT22;35409;48.776;9.204;2023-02-21T10:35:31;11.70;99.90
49503;DHT22;35409;48.776;9.204;2023-02-21T10:38:00;11.80;99.90
49503;DHT22;35409;48.776;9.204;2023-02-21T10:40:45;11.90;99.90
49503;DHT22;35409;48.776;9.204;2023-02-21T10:45:52;12.10;99.90
49503;DHT22;35409;48.776;9.204;2023-02-21T10:48:24;12.10;99.90
49503;DHT22;35409;48.776;9.204;2023-02-21T10:53:33;12.20;99.90
49503;DHT22;35409;48.776;9.204;2023-02-21T10:59:01;12.30;99.90
49503;DHT22;35409;48.776;9.204;2023-02-21T11:01:44;12.60;99.90
49503;DHT22;35409;48.776;9.204;2023-02-21T11:07:07;12.90;99.40
49503;DHT22;35409;48.776;9.204;2023-02-21T11:09:44;12.90;99.50
49503;DHT22;35409;48.776;9.204;2023-02-21T11:12:27;12.90;99.80
49503;DHT22;35409;48.776;9.204;2023-02-21T11:17:26;13.10;99.30
49503;DHT22;35409;48.776;9.204;2023-02-21T11:20:16;13.20;99.50
49503;DHT22;35409;48.776;9.204;2023-02-21T11:22:44;13.30;98.90
49503;DHT22;35409;48.776;9.204;2023-02-21T11:27:37;13.40;98.50
49503;DHT22;35409;48.776;9.204;2023-02-21T11:32:46;13.60;98.40
49503;DHT22;35409;48.776;9.204;2023-02-21T11:37:59;13.80;97.10
49503;DHT22;35409;48.776;9.204;2023-02-21T11:46:12;14.20;96.00
49503;DHT22;35409;48.776;9.204;2023-02-21T11:51:50;14.20;95.90
49503;DHT22;35409;48.776;9.204;2023-02-21T11:54:19;14.30;95.40
49503;DHT22;35409;48.776;9.204;2023-02-21T11:56:55;14.30;94.90
49503;DHT22;35409;48.776;9.204;2023-02-21T12:17:07;14.90;93.10
49503;DHT22;35409;48.776;9.204;2023-02-21T12:22:33;15.00;92.60
49503;DHT22;35409;48.776;9.204;2023-02-21T12:38:26;15.80;90.50
49503;DHT22;35409;48.776;9.204;2023-02-21T12:41:42;16.20;89.50
49503;DHT22;35409;48.776;9.204;2023-02-21T12:44:13;16.70;87.80
49503;DHT22;35409;48.776;9.204;2023-02-21T12:47:01;17.10;86.90
49503;DHT22;35409;48.776;9.204;2023-02-21T12:49:44;17.40;84.90
49503;DHT22;35409;48.776;9.204;2023-02-21T12:52:24;17.80;83.20
49503;DHT22;35409;48.776;9.204;2023-02-21T13:05:39;19.30;75.30
49503;DHT22;35409;48.776;9.204;2023-02-21T13:08:21;19.60;74.40
49503;DHT22;35409;48.776;9.204;2023-02-21T13:11:08;20.10;71.90
49503;DHT22;35409;48.776;9.204;2023-02-21T13:13:34;20.60;70.70
49503;DHT22;35409;48.776;9.204;2023-02-21T13:16:03;20.90;69.30
49503;DHT22;35409;48.776;9.204;2023-02-21T13:18:45;21.10;69.10
49503;DHT22;35409;48.776;9.204;2023-02-21T13:24:03;21.60;66.70
49503;DHT22;35409;48.776;9.204;2023-02-21T13:29:41;21.80;66.30
49503;DHT22;35409;48.776;9.204;2023-02-21T13:32:16;21.90;64.80
49503;DHT22;35409;48.776;9.204;2023-02-21T13:34:52;21.90;64.70
49503;DHT22;35409;48.776;9.204;2023-02-21T13:37:21;21.90;64.50
49503;DHT22;35409;48.776;9.204;2023-02-21T13:39:55;21.80;64.30
49503;DHT22;35409;48.776;9.204;2023-02-21T13:42:27;21.80;63.90
49503;DHT22;35409;48.776;9.204;2023-02-21T13:55:34;21.50;62.80
49503;DHT22;35409;48.776;9.204;2023-02-21T14:03:02;21.10;63.30
49503;DHT22;35409;48.776;9.204;2023-02-21T14:16:08;20.60;64.50
49503;DHT22;35409;48.776;9.204;2023-02-21T14:18:56;20.50;64.20
49503;DHT22;35409;48.776;9.204;2023-02-21T14:21:34;20.20;64.00
49503;DHT22;35409;48.776;9.204;2023-02-21T14:24:04;20.00;64.50
49503;DHT22;35409;48.776;9.204;2023-02-21T14:26:38;20.10;64.70
49503;DHT22;35409;48.776;9.204;2023-02-21T14:40:23;18.80;66.80
49503;DHT22;35409;48.776;9.204;2023-02-21T14:45:57;18.00;67.50
49503;DHT22;35409;48.776;9.204;2023-02-21T14:54:14;17.40;69.70
49503;DHT22;35409;48.776;9.204;2023-02-21T14:57:14;17.40;69.30
49503;DHT22;35409;48.776;9.204;2023-02-21T15:08:23;16.90;70.80
49503;DHT22;35409;48.776;9.204;2023-02-21T15:10:50;16.80;70.90
49503;DHT22;35409;48.776;9.204;2023-02-21T15:13:28;16.80;70.90
49503;DHT22;35409;48.776;9.204;2023-02-21T15:16:01;16.70;71.10
49503;DHT22;35409;48.776;9.204;2023-02-21T15:18:29;16.80;71.00
49503;DHT22;35409;48.776;9.204;2023-02-21T15:23:38;16.70;72.10
49503;DHT22;35409;48.776;9.204;2023-02-21T15:29:19;16.60;71.80
49503;DHT22;35409;48.776;9.204;2023-02-21T15:31:51;16.50;72.50
49503;DHT22;35409;48.776;9.204;2023-02-21T15:34:26;16.40;73.20
49503;DHT22;35409;48.776;9.204;2023-02-21T15:39:42;16.40;73.60
49503;DHT22;35409;48.776;9.204;2023-02-21T15:42:12;16.20;74.10
49503;DHT22;35409;48.776;9.204;2023-02-21T15:44:44;16.20;74.70
49503;DHT22;35409;48.776;9.204;2023-02-21T15:47:14;16.10;74.40
49503;DHT22;35409;48.776;9.204;2023-02-21T15:52:39;15.80;76.10
49503;DHT22;35409;48.776;9.204;2023-02-21T15:58:00;15.50;77.70
49503;DHT22;35409;48.776;9.204;2023-02-21T16:00:35;15.30;78.30
49503;DHT22;35409;48.776;9.204;2023-02-21T16:11:16;14.80;81.60
49503;DHT22;35409;48.776;9.204;2023-02-21T16:13:43;14.60;82.50
49503;DHT22;35409;48.776;9.204;2023-02-21T16:16:09;14.40;83.40
49503;DHT22;35409;48.776;9.204;2023-02-21T16:18:35;14.30;84.40
49503;DHT22;35409;48.776;9.204;2023-02-21T16:21:02;14.20;85.30
49503;DHT22;35409;48.776;9.204;2023-02-21T16:26:01;13.90;87.40
49503;DHT22;35409;48.776;9.204;2023-02-21T16:28:29;13.80;88.40
49503;DHT22;35409;48.776;9.204;2023-02-21T16:30:56;13.60;89.60
49503;DHT22;35409;48.776;9.204;2023-02-21T16:33:24;13.50;90.20
49503;DHT22;35409;48.776;9.204;2023-02-21T16:35:50;13.40;90.70
49503;DHT22;35409;48.776;9.204;2023-02-21T16:38:18;13.20;91.70
49503;DHT22;35409;48.776;9.204;2023-02-21T16:40:45;13.00;92.60
49503;DHT22;35409;48.776;9.204;2023-02-21T16:43:24;12.80;93.40
49503;DHT22;35409;48.776;9.204;2023-02-21T16:45:52;12.70;94.50
49503;DHT22;35409;48.776;9.204;2023-02-21T16:48:24;12.50;95.70
49503;DHT22;35409;48.776;9.204;2023-02-21T16:50:53;12.30;96.90
49503;DHT22;35409;48.776;9.204;2023-02-21T16:53:20;12.20;98.20
49503;DHT22;35409;48.776;9.204;2023-02-21T16:55:47;12.00;99.80
49503;DHT22;35409;48.776;9.204;2023-02-21T16:58:34;11.80;99.90
49503;DHT22;35409;48.776;9.204;2023-02-21T17:01:05;11.60;99.90
49503;DHT22;35409;48.776;9.204;2023-02-21T17:03:31;11.50;99.90
49503;DHT22;35409;48.776;9.204;2023-02-21T17:05:58;11.30;99.90
49503;DHT22;35409;48.776;9.204;2023-02-21T17:08:24;11.20;99.90
49503;DHT22;35409;48.776;9.204;2023-02-21T17:10:51;11.00;99.90
49503;DHT22;35409;48.776;9.204;2023-02-21T17:13:17;10.90;99.90
49503;DHT22;35409;48.776;9.204;2023-02-21T17:15:42;10.80;99.90
49503;DHT22;35409;48.776;9.204;2023-02-21T17:18:08;10.60;99.90
49503;DHT22;35409;48.776;9.204;2023-02-21T17:25:27;10.30;99.90
49503;DHT22;35409;48.776;9.204;2023-02-21T17:27:53;10.30;99.90
49503;DHT22;35409;48.776;9.204;2023-02-21T17:30:22;10.10;99.90
49503;DHT22;35409;48.776;9.204;2023-02-21T17:32:49;10.00;99.90
49503;DHT22;35409;48.776;9.204;2023-02-21T17:35:17;9.90;99.90
49503;DHT22;35409;48.776;9.204;2023-02-21T17:37:44;9.90;99.90
49503;DHT22;35409;48.776;9.204;2023-02-21T17:40:12;9.80;99.90
49503;DHT22;35409;48.776;9.204;2023-02-21T17:42:38;9.70;99.90
49503;DHT22;35409;48.776;9.204;2023-02-21T17:45:05;9.70;99.90
49503;DHT22;35409;48.776;9.204;2023-02-21T17:47:31;9.70;99.90
49503;DHT22;35409;48.776;9.204;2023-02-21T17:49:57;9.60;99.90
49503;DHT22;35409;48.776;9.204;2023-02-21T17:52:25;9.70;99.90
49503;DHT22;35409;48.776;9.204;2023-02-21T17:54:51;9.60;99.90
49503;DHT22;35409;48.776;9.204;2023-02-21T17:57:17;9.50;99.90
49503;DHT22;35409;48.776;9.204;2023-02-21T17:59:42;9.50;99.90
49503;DHT22;35409;48.776;9.204;2023-02-21T18:02:10;9.50;99.90
49503;DHT22;35409;48.776;9.204;2023-02-21T18:04:36;9.40;99.90
49503;DHT22;35409;48.776;9.204;2023-02-21T18:07:02;9.40;99.90
49503;DHT22;35409;48.776;9.204;2023-02-21T18:09:28;9.30;99.90
49503;DHT22;35409;48.776;9.204;2023-02-21T18:11:57;9.30;99.90
49503;DHT22;35409;48.776;9.204;2023-02-21T18:14:26;9.30;99.90
49503;DHT22;35409;48.776;9.204;2023-02-21T18:16:54;9.20;99.90
49503;DHT22;35409;48.776;9.204;2023-02-21T18:19:21;9.20;99.90
49503;DHT22;35409;48.776;9.204;2023-02-21T18:21:47;9.10;99.90
49503;DHT22;35409;48.776;9.204;2023-02-21T18:24:14;9.10;99.90
49503;DHT22;35409;48.776;9.204;2023-02-21T18:26:40;9.00;99.90
49503;DHT22;35409;48.776;9.204;2023-02-21T18:29:07;9.00;99.90
49503;DHT22;35409;48.776;9.204;2023-02-21T18:31:33;8.90;99.90
49503;DHT22;35409;48.776;9.204;2023-02-21T18:34:00;8.90;99.90
49503;DHT22;35409;48.776;9.204;2023-02-21T18:36:26;8.80;99.90
49503;DHT22;35409;48.776;9.204;2023-02-21T18:38:52;8.80;99.90
49503;DHT22;35409;48.776;9.204;2023-02-21T18:41:19;8.70;99.90
49503;DHT22;35409;48.776;9.204;2023-02-21T18:43:45;8.60;99.90
49503;DHT22;35409;48.776;9.204;2023-02-21T18:46:13;8.50;99.90
49503;DHT22;35409;48.776;9.204;2023-02-21T18:48:44;8.50;99.90
49503;DHT22;35409;48.776;9.204;2023-02-21T18:51:11;8.50;99.90
49503;DHT22;35409;48.776;9.204;2023-02-21T18:53:38;8.50;99.90
49503;DHT22;35409;48.776;9.204;2023-02-21T18:56:08;8.40;99.90
49503;DHT22;35409;48.776;9.204;2023-02-21T18:58:35;8.40;99.90
49503;DHT22;35409;48.776;9.204;2023-02-21T19:01:00;8.40;99.90
49503;DHT22;35409;48.776;9.204;2023-02-21T19:03:26;8.30;99.90
49503;DHT22;35409;48.776;9.204;2023-02-21T19:05:52;8.30;99.90
49503;DHT22;35409;48.776;9.204;2023-02-21T19:08:18;8.30;99.90
49503;DHT22;35409;48.776;9.204;2023-02-21T19:10:46;8.20;99.90
49503;DHT22;35409;48.776;9.204;2023-02-21T19:13:13;8.10;99.90
49503;DHT22;35409;48.776;9.204;2023-02-21T19:15:38;8.10;99.90
49503;DHT22;35409;48.776;9.204;2023-02-21T19:18:04;8.00;99.90
49503;DHT22;35409;48.776;9.204;2023-02-21T19:20:30;8.00;99.90
49503;DHT22;35409;48.776;9.204;2023-02-21T19:22:55;8.00;99.90
49503;DHT22;35409;48.776;9.204;2023-02-21T19:25:22;8.00;99.90
49503;DHT22;35409;48.776;9.204;2023-02-21T19:27:51;8.00;99.90
49503;DHT22;35409;48.776;9.204;2023-02-21T19:30:20;8.00;99.90
49503;DHT22;35409;48.776;9.204;2023-02-21T19:32:46;7.90;99.90